sensor_id;sensor_type;location;lat;lon;timestamp;pressure;altitude;pressure_sealevel;temperature;humidity
57114;BME280;42994;51.606;9.988;2024-01-16T00:00:56;97951.69;;;-0.66;100.00
57114;BME280;42994;51.606;9.988;2024-01-16T00:03:23;97949.75;;;-0.64;100.00
57114;BME280;42994;51.606;9.988;2024-01-16T00:05:49;97958.72;;;-0.56;100.00
57114;BME280;42994;51.606;9.988;2024-01-16T00:08:17;97952.72;;;-0.59;100.00
57114;BME280;42994;51.606;9.988;2024-01-16T00:10:44;97963.38;;;-0.50;100.00
57114;BME280;42994;51.606;9.988;2024-01-16T00:13:11;97961.47;;;-0.58;100.00
57114;BME280;42994;51.606;9.988;2024-01-16T00:15:38;97958.31;;;-0.62;100.00
57114;BME280;42994;51.606;9.988;2024-01-16T00:18:06;97963.56;;;-0.62;100.00
57114;BME280;42994;51.606;9.988;2024-01-16T00:20:33;97972.28;;;-0.61;100.00
57114;BME280;42994;51.606;9.988;2024-01-16T00:23:00;97969.66;;;-0.61;100.00
57114;BME280;42994;51.606;9.988;2024-01-16T00:25:28;97973.91;;;-0.50;100.00
57114;BME280;42994;51.606;9.988;2024-01-16T00:27:55;97970.44;;;-0.51;100.00
57114;BME280;42994;51.606;9.988;2024-01-16T00:30:21;97972.41;;;-0.53;100.00
57114;BME280;42994;51.606;9.988;2024-01-16T00:32:48;97980.31;;;-0.53;100.00
57114;BME280;42994;51.606;9.988;2024-01-16T00:35:15;97966.69;;;-0.48;100.00
57114;BME280;42994;51.606;9.988;2024-01-16T00:37:41;97983.47;;;-0.49;100.00
57114;BME280;42994;51.606;9.988;2024-01-16T00:40:08;97985.94;;;-0.48;100.00
57114;BME280;42994;51.606;9.988;2024-01-16T00:42:36;97980.22;;;-0.43;100.00
57114;BME280;42994;51.606;9.988;2024-01-16T00:45:04;97980.53;;;-0.46;100.00
57114;BME280;42994;51.606;9.988;2024-01-16T00:47:31;97993.16;;;-0.50;100.00
57114;BME280;42994;51.606;9.988;2024-01-16T00:49:58;97991.13;;;-0.56;100.00
57114;BME280;42994;51.606;9.988;2024-01-16T00:52:25;97994.75;;;-0.67;100.00
57114;BME280;42994;51.606;9.988;2024-01-16T00:54:52;98004.59;;;-0.69;100.00
57114;BME280;42994;51.606;9.988;2024-01-16T00:57:18;98026.63;;;-0.70;100.00
57114;BME280;42994;51.606;9.988;2024-01-16T00:59:47;98026.59;;;-0.60;100.00
57114;BME280;42994;51.606;9.988;2024-01-16T01:02:14;98028.25;;;-0.59;100.00
57114;BME280;42994;51.606;9.988;2024-01-16T01:04:40;98034.50;;;-0.60;100.00
57114;BME280;42994;51.606;9.988;2024-01-16T01:07:08;98032.69;;;-0.60;100.00
57114;BME280;42994;51.606;9.988;2024-01-16T01:09:35;98035.19;;;-0.58;100.00
57114;BME280;42994;51.606;9.988;2024-01-16T01:12:01;98025.19;;;-0.54;100.00
57114;BME280;42994;51.606;9.988;2024-01-16T01:14:28;98025.19;;;-0.54;100.00
57114;BME280;42994;51.606;9.988;2024-01-16T01:16:57;98023.38;;;-0.54;100.00
57114;BME280;42994;51.606;9.988;2024-01-16T01:19:24;98037.28;;;-0.62;100.00
57114;BME280;42994;51.606;9.988;2024-01-16T01:21:51;98031.88;;;-0.60;100.00
57114;BME280;42994;51.606;9.988;2024-01-16T01:24:17;98044.91;;;-0.68;100.00
57114;BME280;42994;51.606;9.988;2024-01-16T01:26:44;98047.72;;;-0.80;100.00
57114;BME280;42994;51.606;9.988;2024-01-16T01:29:11;98052.84;;;-0.88;100.00
57114;BME280;42994;51.606;9.988;2024-01-16T01:31:37;98080.41;;;-0.82;100.00
57114;BME280;42994;51.606;9.988;2024-01-16T01:34:05;98096.47;;;-0.95;100.00
57114;BME280;42994;51.606;9.988;2024-01-16T01:36:32;98107.69;;;-0.83;100.00
57114;BME280;42994;51.606;9.988;2024-01-16T01:38:59;98112.84;;;-1.01;100.00
57114;BME280;42994;51.606;9.988;2024-01-16T01:41:26;98126.81;;;-1.01;100.00
57114;BME280;42994;51.606;9.988;2024-01-16T01:43:52;98131.94;;;-1.09;100.00
57114;BME280;42994;51.606;9.988;2024-01-16T01:46:19;98138.84;;;-1.08;100.00
57114;BME280;42994;51.606;9.988;2024-01-16T01:48:47;98135.25;;;-0.97;100.00
57114;BME280;42994;51.606;9.988;2024-01-16T01:51:18;98147.31;;;-0.94;100.00
57114;BME280;42994;51.606;9.988;2024-01-16T01:53:46;98150.50;;;-0.91;100.00
57114;BME280;42994;51.606;9.988;2024-01-16T01:56:17;98133.16;;;-0.93;100.00
57114;BME280;42994;51.606;9.988;2024-01-16T01:58:46;98142.59;;;-0.91;100.00
57114;BME280;42994;51.606;9.988;2024-01-16T02:01:14;98142.03;;;-1.04;100.00
57114;BME280;42994;51.606;9.988;2024-01-16T02:03:42;98136.63;;;-1.03;100.00
57114;BME280;42994;51.606;9.988;2024-01-16T02:06:10;98143.28;;;-1.08;100.00
57114;BME280;42994;51.606;9.988;2024-01-16T02:08:39;98142.75;;;-1.02;100.00
57114;BME280;42994;51.606;9.988;2024-01-16T02:11:06;98149.66;;;-1.01;100.00
57114;BME280;42994;51.606;9.988;2024-01-16T02:13:33;98144.13;;;-0.98;100.00
57114;BME280;42994;51.606;9.988;2024-01-16T02:16:00;98153.25;;;-0.92;100.00
57114;BME280;42994;51.606;9.988;2024-01-16T02:18:26;98152.69;;;-0.86;100.00
57114;BME280;42994;51.606;9.988;2024-01-16T02:20:57;98154.59;;;-0.79;100.00
57114;BME280;42994;51.606;9.988;2024-01-16T02:23:27;98137.03;;;-0.78;100.00
57114;BME280;42994;51.606;9.988;2024-01-16T02:25:54;98137.59;;;-0.84;100.00
57114;BME280;42994;51.606;9.988;2024-01-16T02:28:21;98136.63;;;-0.83;100.00
57114;BME280;42994;51.606;9.988;2024-01-16T02:30:47;98129.56;;;-0.83;100.00
57114;BME280;42994;51.606;9.988;2024-01-16T02:33:14;98134.69;;;-0.81;100.00
57114;BME280;42994;51.606;9.988;2024-01-16T02:35:41;98139.13;;;-0.82;100.00
57114;BME280;42994;51.606;9.988;2024-01-16T02:38:07;98126.09;;;-0.83;100.00
57114;BME280;42994;51.606;9.988;2024-01-16T02:40:35;98139.13;;;-0.82;100.00
57114;BME280;42994;51.606;9.988;2024-01-16T02:43:02;98144.66;;;-0.85;100.00
57114;BME280;42994;51.606;9.988;2024-01-16T02:45:29;98134.13;;;-0.85;100.00
57114;BME280;42994;51.606;9.988;2024-01-16T02:47:55;98146.47;;;-0.85;100.00
57114;BME280;42994;51.606;9.988;2024-01-16T02:50:22;98135.94;;;-0.85;100.00
57114;BME280;42994;51.606;9.988;2024-01-16T02:52:49;98144.94;;;-0.88;100.00
57114;BME280;42994;51.606;9.988;2024-01-16T02:55:15;98156.56;;;-0.90;100.00
57114;BME280;42994;51.606;9.988;2024-01-16T02:57:43;98156.31;;;-0.87;100.00
57114;BME280;42994;51.606;9.988;2024-01-16T03:00:11;98153.00;;;-0.89;100.00
57114;BME280;42994;51.606;9.988;2024-01-16T03:02:37;98156.56;;;-0.81;100.00
57114;BME280;42994;51.606;9.988;2024-01-16T03:05:05;98164.47;;;-0.90;100.00
57114;BME280;42994;51.606;9.988;2024-01-16T03:07:32;98154.09;;;-0.82;100.00
57114;BME280;42994;51.606;9.988;2024-01-16T03:09:58;98157.13;;;-0.87;100.00
57114;BME280;42994;51.606;9.988;2024-01-16T03:12:25;98164.88;;;-0.85;100.00
57114;BME280;42994;51.606;9.988;2024-01-16T03:14:53;98161.25;;;-0.84;100.00
57114;BME280;42994;51.606;9.988;2024-01-16T03:17:20;98157.69;;;-0.83;100.00
57114;BME280;42994;51.606;9.988;2024-01-16T03:19:47;98171.66;;;-0.83;100.00
57114;BME280;42994;51.606;9.988;2024-01-16T03:22:13;98167.50;;;-0.85;100.00
57114;BME280;42994;51.606;9.988;2024-01-16T03:24:40;98167.50;;;-0.85;100.00
57114;BME280;42994;51.606;9.988;2024-01-16T03:27:06;98164.34;;;-0.89;100.00
57114;BME280;42994;51.606;9.988;2024-01-16T03:29:33;98166.53;;;-0.84;100.00
57114;BME280;42994;51.606;9.988;2024-01-16T03:32:02;98169.47;;;-0.87;100.00
57114;BME280;42994;51.606;9.988;2024-01-16T03:34:30;98166.25;;;-0.81;100.00
57114;BME280;42994;51.606;9.988;2024-01-16T03:36:56;98170.00;;;-0.84;100.00
57114;BME280;42994;51.606;9.988;2024-01-16T03:39:23;98165.56;;;-0.83;100.00
57114;BME280;42994;51.606;9.988;2024-01-16T03:41:50;98165.13;;;-0.79;100.00
57114;BME280;42994;51.606;9.988;2024-01-16T03:44:16;98163.50;;;-0.89;100.00
57114;BME280;42994;51.606;9.988;2024-01-16T03:46:43;98165.03;;;-0.87;100.00
57114;BME280;42994;51.606;9.988;2024-01-16T03:49:11;98171.38;;;-0.80;100.00
57114;BME280;42994;51.606;9.988;2024-01-16T03:51:37;98161.56;;;-0.87;100.00
57114;BME280;42994;51.606;9.988;2024-01-16T03:54:04;98166.41;;;-0.83;100.00
57114;BME280;42994;51.606;9.988;2024-01-16T03:56:30;98170.97;;;-0.85;100.00
57114;BME280;42994;51.606;9.988;2024-01-16T03:58:57;98173.31;;;-0.91;100.00
57114;BME280;42994;51.606;9.988;2024-01-16T04:01:30;98181.63;;;-0.86;100.00
57114;BME280;42994;51.606;9.988;2024-01-16T04:03:57;98174.84;;;-0.89;100.00
57114;BME280;42994;51.606;9.988;2024-01-16T04:06:25;98175.25;;;-0.93;100.00
57114;BME280;42994;51.606;9.988;2024-01-16T04:08:51;98172.09;;;-0.87;100.00
57114;BME280;42994;51.606;9.988;2024-01-16T04:11:18;98178.03;;;-0.95;100.00
57114;BME280;42994;51.606;9.988;2024-01-16T04:13:45;98177.22;;;-0.86;100.00
57114;BME280;42994;51.606;9.988;2024-01-16T04:16:12;98173.63;;;-0.94;100.00
57114;BME280;42994;51.606;9.988;2024-01-16T04:18:40;98181.50;;;-0.94;100.00
57114;BME280;42994;51.606;9.988;2024-01-16T04:21:07;98174.31;;;-0.92;100.00
57114;BME280;42994;51.606;9.988;2024-01-16T04:23:35;98181.66;;;-0.96;100.00
57114;BME280;42994;51.606;9.988;2024-01-16T04:26:02;98175.00;;;-1.00;100.00
57114;BME280;42994;51.606;9.988;2024-01-16T04:28:29;98181.50;;;-0.94;100.00
57114;BME280;42994;51.606;9.988;2024-01-16T04:30:55;98181.91;;;-0.99;100.00
57114;BME280;42994;51.606;9.988;2024-01-16T04:33:22;98185.66;;;-1.02;100.00
57114;BME280;42994;51.606;9.988;2024-01-16T04:35:49;98190.09;;;-0.92;100.00
57114;BME280;42994;51.606;9.988;2024-01-16T04:38:16;98193.81;;;-1.05;100.00
57114;BME280;42994;51.606;9.988;2024-01-16T04:40:44;98194.66;;;-1.04;100.00
57114;BME280;42994;51.606;9.988;2024-01-16T04:43:11;98210.59;;;-0.96;100.00
57114;BME280;42994;51.606;9.988;2024-01-16T04:45:41;98213.22;;;-1.06;100.00
57114;BME280;42994;51.606;9.988;2024-01-16T04:48:08;98216.38;;;-1.12;100.00
57114;BME280;42994;51.606;9.988;2024-01-16T04:50:35;98223.19;;;-1.00;100.00
57114;BME280;42994;51.606;9.988;2024-01-16T04:53:03;98225.66;;;-1.08;100.00
57114;BME280;42994;51.606;9.988;2024-01-16T04:55:30;98230.50;;;-1.13;100.00
57114;BME280;42994;51.606;9.988;2024-01-16T04:58:00;98232.84;;;-1.10;100.00
57114;BME280;42994;51.606;9.988;2024-01-16T05:00:29;98232.72;;;-1.18;100.00
57114;BME280;42994;51.606;9.988;2024-01-16T05:02:56;98235.22;;;-1.17;100.00
57114;BME280;42994;51.606;9.988;2024-01-16T05:05:23;98239.09;;;-1.11;100.00
57114;BME280;42994;51.606;9.988;2024-01-16T05:07:51;98239.22;;;-1.12;100.00
57114;BME280;42994;51.606;9.988;2024-01-16T05:10:19;98242.97;;;-1.15;100.00
57114;BME280;42994;51.606;9.988;2024-01-16T05:12:45;98228.56;;;-1.11;100.00
57114;BME280;42994;51.606;9.988;2024-01-16T05:15:14;98233.09;;;-1.23;100.00
57114;BME280;42994;51.606;9.988;2024-01-16T05:17:41;98237.56;;;-1.13;100.00
57114;BME280;42994;51.606;9.988;2024-01-16T05:20:08;98229.81;;;-1.15;100.00
57114;BME280;42994;51.606;9.988;2024-01-16T05:22:36;98236.31;;;-1.19;100.00
57114;BME280;42994;51.606;9.988;2024-01-16T05:25:05;98247.53;;;-1.07;100.00
57114;BME280;42994;51.606;9.988;2024-01-16T05:27:32;98246.25;;;-1.23;100.00
57114;BME280;42994;51.606;9.988;2024-01-16T05:29:59;98249.56;;;-1.30;100.00
57114;BME280;42994;51.606;9.988;2024-01-16T05:32:27;98251.34;;;-1.41;100.00
57114;BME280;42994;51.606;9.988;2024-01-16T05:34:54;98248.88;;;-1.42;100.00
57114;BME280;42994;51.606;9.988;2024-01-16T05:37:21;98263.66;;;-1.41;100.00
57114;BME280;42994;51.606;9.988;2024-01-16T05:39:49;98270.84;;;-1.43;100.00
57114;BME280;42994;51.606;9.988;2024-01-16T05:42:16;98272.66;;;-1.44;100.00
57114;BME280;42994;51.606;9.988;2024-01-16T05:44:43;98270.28;;;-1.47;100.00
57114;BME280;42994;51.606;9.988;2024-01-16T05:47:10;98275.44;;;-1.36;100.00
57114;BME280;42994;51.606;9.988;2024-01-16T05:49:38;98267.03;;;-1.29;100.00
57114;BME280;42994;51.606;9.988;2024-01-16T05:52:07;98268.09;;;-1.32;100.00
57114;BME280;42994;51.606;9.988;2024-01-16T05:54:34;98263.69;;;-1.31;100.00
57114;BME280;42994;51.606;9.988;2024-01-16T05:57:01;98265.34;;;-1.30;100.00
57114;BME280;42994;51.606;9.988;2024-01-16T05:59:28;98257.59;;;-1.32;100.00
57114;BME280;42994;51.606;9.988;2024-01-16T06:01:57;98256.06;;;-1.34;100.00
57114;BME280;42994;51.606;9.988;2024-01-16T06:04:24;98261.34;;;-1.34;100.00
57114;BME280;42994;51.606;9.988;2024-01-16T06:06:52;98260.09;;;-1.30;100.00
57114;BME280;42994;51.606;9.988;2024-01-16T06:09:18;98263.69;;;-1.31;100.00
57114;BME280;42994;51.606;9.988;2024-01-16T06:11:45;98255.63;;;-1.40;100.00
57114;BME280;42994;51.606;9.988;2024-01-16T06:14:13;98261.03;;;-1.41;100.00
57114;BME280;42994;51.606;9.988;2024-01-16T06:16:46;98262.25;;;-1.45;100.00
57114;BME280;42994;51.606;9.988;2024-01-16T06:19:13;98265.56;;;-1.53;100.00
57114;BME280;42994;51.606;9.988;2024-01-16T06:21:40;98266.78;;;-1.57;100.00
57114;BME280;42994;51.606;9.988;2024-01-16T06:24:08;98276.91;;;-1.52;100.00
57114;BME280;42994;51.606;9.988;2024-01-16T06:26:49;98287.69;;;-1.56;100.00
57114;BME280;42994;51.606;9.988;2024-01-16T06:29:22;98290.72;;;-1.60;100.00
57114;BME280;42994;51.606;9.988;2024-01-16T06:31:49;98293.22;;;-1.59;100.00
57114;BME280;42994;51.606;9.988;2024-01-16T06:34:16;98287.91;;;-1.68;100.00
57114;BME280;42994;51.606;9.988;2024-01-16T06:36:43;98308.09;;;-1.69;100.00
57114;BME280;42994;51.606;9.988;2024-01-16T06:39:11;98305.78;;;-1.62;100.00
57114;BME280;42994;51.606;9.988;2024-01-16T06:41:39;98298.72;;;-1.62;100.00
57114;BME280;42994;51.606;9.988;2024-01-16T06:44:06;98307.06;;;-1.57;100.00
57114;BME280;42994;51.606;9.988;2024-01-16T06:46:35;98309.38;;;-1.63;100.00
57114;BME280;42994;51.606;9.988;2024-01-16T06:49:02;98310.75;;;-1.59;100.00
57114;BME280;42994;51.606;9.988;2024-01-16T06:51:29;98310.19;;;-1.63;100.00
57114;BME280;42994;51.606;9.988;2024-01-16T06:53:56;98316.00;;;-1.59;100.00
57114;BME280;42994;51.606;9.988;2024-01-16T06:56:24;98319.53;;;-1.49;100.00
57114;BME280;42994;51.606;9.988;2024-01-16T06:58:52;98322.16;;;-1.49;100.00
57114;BME280;42994;51.606;9.988;2024-01-16T07:01:19;98317.59;;;-1.47;100.00
57114;BME280;42994;51.606;9.988;2024-01-16T07:03:46;98319.00;;;-1.43;100.00
57114;BME280;42994;51.606;9.988;2024-01-16T07:06:13;98324.53;;;-1.46;100.00
57114;BME280;42994;51.606;9.988;2024-01-16T07:08:39;98307.66;;;-1.33;100.00
57114;BME280;42994;51.606;9.988;2024-01-16T07:11:06;98310.16;;;-1.42;100.00
57114;BME280;42994;51.606;9.988;2024-01-16T07:13:39;98313.47;;;-1.40;100.00
57114;BME280;42994;51.606;9.988;2024-01-16T07:16:08;98303.41;;;-1.34;100.00
57114;BME280;42994;51.606;9.988;2024-01-16T07:18:37;98305.78;;;-1.31;100.00
57114;BME280;42994;51.606;9.988;2024-01-16T07:21:04;98303.41;;;-1.34;100.00
57114;BME280;42994;51.606;9.988;2024-01-16T07:23:31;98291.34;;;-1.37;100.00
57114;BME280;42994;51.606;9.988;2024-01-16T07:25:58;98300.50;;;-1.31;100.00
57114;BME280;42994;51.606;9.988;2024-01-16T07:28:24;98292.19;;;-1.37;100.00
57114;BME280;42994;51.606;9.988;2024-01-16T07:30:53;98295.25;;;-1.31;100.00
57114;BME280;42994;51.606;9.988;2024-01-16T07:33:20;98293.47;;;-1.21;100.00
57114;BME280;42994;51.606;9.988;2024-01-16T07:35:47;98293.22;;;-1.08;100.00
57114;BME280;42994;51.606;9.988;2024-01-16T07:38:14;98301.47;;;-1.23;100.00
57114;BME280;42994;51.606;9.988;2024-01-16T07:40:41;98298.41;;;-1.28;100.00
57114;BME280;42994;51.606;9.988;2024-01-16T07:43:07;98288.75;;;-1.27;100.00
57114;BME280;42994;51.606;9.988;2024-01-16T07:45:34;98300.91;;;-1.26;100.00
57114;BME280;42994;51.606;9.988;2024-01-16T07:48:02;98296.63;;;-1.27;100.00
57114;BME280;42994;51.606;9.988;2024-01-16T07:50:32;98294.69;;;-1.25;100.00
57114;BME280;42994;51.606;9.988;2024-01-16T07:52:59;98298.84;;;-1.23;100.00
57114;BME280;42994;51.606;9.988;2024-01-16T07:55:26;98295.25;;;-1.22;100.00
57114;BME280;42994;51.606;9.988;2024-01-16T07:57:53;98292.63;;;-1.22;100.00
57114;BME280;42994;51.606;9.988;2024-01-16T08:00:28;98292.06;;;-1.25;100.00
57114;BME280;42994;51.606;9.988;2024-01-16T08:03:04;98289.03;;;-1.21;100.00
57114;BME280;42994;51.606;9.988;2024-01-16T08:05:31;98292.19;;;-1.27;100.00
57114;BME280;42994;51.606;9.988;2024-01-16T08:08:00;98292.34;;;-1.28;100.00
57114;BME280;42994;51.606;9.988;2024-01-16T08:10:27;98298.03;;;-1.23;100.00
57114;BME280;42994;51.606;9.988;2024-01-16T08:12:54;98293.88;;;-1.26;100.00
57114;BME280;42994;51.606;9.988;2024-01-16T08:15:21;98302.72;;;-1.17;100.00
57114;BME280;42994;51.606;9.988;2024-01-16T08:17:54;98294.84;;;-1.17;100.00
57114;BME280;42994;51.606;9.988;2024-01-16T08:20:30;98296.09;;;-1.21;100.00
57114;BME280;42994;51.606;9.988;2024-01-16T08:23:11;98299.53;;;-1.21;100.00
57114;BME280;42994;51.606;9.988;2024-01-16T08:25:38;98300.53;;;-1.22;100.00
57114;BME280;42994;51.606;9.988;2024-01-16T08:28:09;98312.97;;;-1.24;100.00
57114;BME280;42994;51.606;9.988;2024-01-16T08:30:39;98315.38;;;-1.11;100.00
57114;BME280;42994;51.606;9.988;2024-01-16T08:33:12;98316.44;;;-1.13;100.00
57114;BME280;42994;51.606;9.988;2024-01-16T08:35:40;98312.88;;;-1.12;100.00
57114;BME280;42994;51.606;9.988;2024-01-16T08:38:12;98312.19;;;-1.05;100.00
57114;BME280;42994;51.606;9.988;2024-01-16T08:43:39;98311.88;;;-1.11;100.00
57114;BME280;42994;51.606;9.988;2024-01-16T08:46:06;98316.19;;;-1.10;100.00
57114;BME280;42994;51.606;9.988;2024-01-16T08:48:46;98318.13;;;-1.03;100.00
57114;BME280;42994;51.606;9.988;2024-01-16T08:51:21;98310.53;;;-1.06;100.00
57114;BME280;42994;51.606;9.988;2024-01-16T08:53:48;98321.00;;;-1.16;100.00
57114;BME280;42994;51.606;9.988;2024-01-16T08:56:21;98321.31;;;-1.09;100.00
57114;BME280;42994;51.606;9.988;2024-01-16T08:58:48;98324.91;;;-1.10;100.00
57114;BME280;42994;51.606;9.988;2024-01-16T09:01:15;98326.59;;;-0.99;100.00
57114;BME280;42994;51.606;9.988;2024-01-16T09:03:42;98333.22;;;-1.05;100.00
57114;BME280;42994;51.606;9.988;2024-01-16T09:06:09;98337.34;;;-1.12;100.00
57114;BME280;42994;51.606;9.988;2024-01-16T09:08:38;98339.63;;;-0.98;100.00
57114;BME280;42994;51.606;9.988;2024-01-16T09:11:04;98333.28;;;-0.75;100.00
57114;BME280;42994;51.606;9.988;2024-01-16T09:13:31;98339.41;;;-0.65;100.00
57114;BME280;42994;51.606;9.988;2024-01-16T09:15:59;98331.47;;;-0.75;100.00
57114;BME280;42994;51.606;9.988;2024-01-16T09:18:32;98326.94;;;-0.73;100.00
57114;BME280;42994;51.606;9.988;2024-01-16T09:20:59;98335.47;;;-0.90;100.00
57114;BME280;42994;51.606;9.988;2024-01-16T09:23:34;98331.06;;;-0.70;100.00
57114;BME280;42994;51.606;9.988;2024-01-16T09:26:03;98327.19;;;-0.66;100.00
57114;BME280;42994;51.606;9.988;2024-01-16T09:28:29;98323.44;;;-0.83;100.00
57114;BME280;42994;51.606;9.988;2024-01-16T09:30:56;98334.91;;;-0.84;100.00
57114;BME280;42994;51.606;9.988;2024-01-16T09:33:23;98329.97;;;-0.68;100.00
57114;BME280;42994;51.606;9.988;2024-01-16T09:35:51;98322.63;;;-0.74;100.00
57114;BME280;42994;51.606;9.988;2024-01-16T09:38:18;98323.88;;;-0.78;100.00
57114;BME280;42994;51.606;9.988;2024-01-16T09:40:45;98312.78;;;-0.72;100.00
57114;BME280;42994;51.606;9.988;2024-01-16T09:43:14;98317.09;;;-0.61;100.00
57114;BME280;42994;51.606;9.988;2024-01-16T09:45:40;98316.25;;;-0.71;100.00
57114;BME280;42994;51.606;9.988;2024-01-16T09:48:08;98323.19;;;-0.70;100.00
57114;BME280;42994;51.606;9.988;2024-01-16T09:50:42;98319.59;;;-0.60;100.00
57114;BME280;42994;51.606;9.988;2024-01-16T09:53:10;98314.47;;;-0.71;100.00
57114;BME280;42994;51.606;9.988;2024-01-16T09:55:37;98313.78;;;-0.73;100.00
57114;BME280;42994;51.606;9.988;2024-01-16T10:01:57;98320.53;;;-0.61;100.00
57114;BME280;42994;51.606;9.988;2024-01-16T10:04:26;98327.88;;;-0.64;100.00
57114;BME280;42994;51.606;9.988;2024-01-16T10:06:54;98319.16;;;-0.65;100.00
57114;BME280;42994;51.606;9.988;2024-01-16T10:09:23;98333.03;;;-0.72;100.00
57114;BME280;42994;51.606;9.988;2024-01-16T10:11:50;98326.19;;;-0.85;100.00
57114;BME280;42994;51.606;9.988;2024-01-16T10:14:18;98331.34;;;-0.73;100.00
57114;BME280;42994;51.606;9.988;2024-01-16T10:16:59;98329.56;;;-0.73;100.00
57114;BME280;42994;51.606;9.988;2024-01-16T10:19:29;98328.56;;;-0.72;100.00
57114;BME280;42994;51.606;9.988;2024-01-16T10:22:01;98331.50;;;-0.55;100.00
57114;BME280;42994;51.606;9.988;2024-01-16T10:24:28;98332.63;;;-0.58;100.00
57114;BME280;42994;51.606;9.988;2024-01-16T10:26:58;98324.72;;;-0.48;100.00
57114;BME280;42994;51.606;9.988;2024-01-16T10:29:26;98327.50;;;-0.60;100.00
57114;BME280;42994;51.606;9.988;2024-01-16T10:31:53;98327.31;;;-0.78;100.00
57114;BME280;42994;51.606;9.988;2024-01-16T10:34:22;98326.94;;;-0.63;100.00
57114;BME280;42994;51.606;9.988;2024-01-16T10:36:50;98322.78;;;-0.56;100.00
57114;BME280;42994;51.606;9.988;2024-01-16T10:39:17;98323.59;;;-0.55;100.00
57114;BME280;42994;51.606;9.988;2024-01-16T10:41:54;98311.97;;;-0.53;100.00
57114;BME280;42994;51.606;9.988;2024-01-16T10:44:21;98318.47;;;-0.57;100.00
57114;BME280;42994;51.606;9.988;2024-01-16T10:46:48;98316.41;;;-0.53;100.00
57114;BME280;42994;51.606;9.988;2024-01-16T10:49:15;98318.50;;;-0.47;100.00
57114;BME280;42994;51.606;9.988;2024-01-16T10:51:44;98311.81;;;-0.51;100.00
57114;BME280;42994;51.606;9.988;2024-01-16T10:54:13;98316.53;;;-0.55;100.00
57114;BME280;42994;51.606;9.988;2024-01-16T10:56:44;98306.97;;;-0.46;100.00
57114;BME280;42994;51.606;9.988;2024-01-16T10:59:18;98297.25;;;-0.46;100.00
57114;BME280;42994;51.606;9.988;2024-01-16T11:01:48;98304.75;;;-0.41;100.00
57114;BME280;42994;51.606;9.988;2024-01-16T11:04:18;98303.50;;;-0.37;100.00
57114;BME280;42994;51.606;9.988;2024-01-16T11:06:46;98305.88;;;-0.34;100.00
57114;BME280;42994;51.606;9.988;2024-01-16T11:09:13;98307.13;;;-0.38;100.00
57114;BME280;42994;51.606;9.988;2024-01-16T11:11:43;98300.84;;;-0.17;100.00
57114;BME280;42994;51.606;9.988;2024-01-16T11:14:11;98310.44;;;-0.26;100.00
57114;BME280;42994;51.606;9.988;2024-01-16T11:16:39;98305.88;;;-0.34;100.00
57114;BME280;42994;51.606;9.988;2024-01-16T11:19:08;98306.44;;;-0.40;100.00
57114;BME280;42994;51.606;9.988;2024-01-16T11:21:35;98312.50;;;-0.30;100.00
57114;BME280;42994;51.606;9.988;2024-01-16T11:24:04;98310.59;;;-0.37;100.00
57114;BME280;42994;51.606;9.988;2024-01-16T11:26:32;98310.56;;;-0.28;100.00
57114;BME280;42994;51.606;9.988;2024-01-16T11:28:59;98301.84;;;-0.38;100.00
57114;BME280;42994;51.606;9.988;2024-01-16T11:31:28;98294.22;;;-0.31;100.00
57114;BME280;42994;51.606;9.988;2024-01-16T11:33:55;98276.31;;;-0.28;100.00
57114;BME280;42994;51.606;9.988;2024-01-16T11:36:50;98278.38;;;-0.12;100.00
57114;BME280;42994;51.606;9.988;2024-01-16T11:39:21;98263.72;;;-0.14;100.00
57114;BME280;42994;51.606;9.988;2024-01-16T11:41:53;98255.94;;;-0.16;100.00
57114;BME280;42994;51.606;9.988;2024-01-16T11:44:40;98255.78;;;-0.05;100.00
57114;BME280;42994;51.606;9.988;2024-01-16T11:47:08;98243.19;;;-0.11;100.00
57114;BME280;42994;51.606;9.988;2024-01-16T11:49:35;98232.19;;;-0.06;100.00
57114;BME280;42994;51.606;9.988;2024-01-16T11:52:02;98240.09;;;-0.06;100.00
57114;BME280;42994;51.606;9.988;2024-01-16T11:54:30;98231.25;;;-0.05;100.00
57114;BME280;42994;51.606;9.988;2024-01-16T11:59:57;98227.75;;;0.04;100.00
57114;BME280;42994;51.606;9.988;2024-01-16T12:02:31;98228.97;;;0.10;100.00
57114;BME280;42994;51.606;9.988;2024-01-16T12:05:00;98224.25;;;0.04;100.00
57114;BME280;42994;51.606;9.988;2024-01-16T12:07:42;98226.38;;;0.00;100.00
57114;BME280;42994;51.606;9.988;2024-01-16T12:10:10;98220.69;;;-0.05;100.00
57114;BME280;42994;51.606;9.988;2024-01-16T12:12:37;98228.69;;;0.03;100.00
57114;BME280;42994;51.606;9.988;2024-01-16T12:15:05;98218.59;;;-0.02;100.00
57114;BME280;42994;51.606;9.988;2024-01-16T12:17:32;98219.16;;;0.02;100.00
57114;BME280;42994;51.606;9.988;2024-01-16T12:20:00;98226.25;;;-0.08;100.00
57114;BME280;42994;51.606;9.988;2024-01-16T12:22:26;98219.63;;;-0.12;100.00
57114;BME280;42994;51.606;9.988;2024-01-16T12:24:56;98224.84;;;-0.03;100.00
57114;BME280;42994;51.606;9.988;2024-01-16T12:27:25;98227.38;;;-0.11;100.00
57114;BME280;42994;51.606;9.988;2024-01-16T12:30:04;98227.59;;;0.06;100.00
57114;BME280;42994;51.606;9.988;2024-01-16T12:32:32;98233.84;;;0.05;100.00
57114;BME280;42994;51.606;9.988;2024-01-16T12:34:59;98226.06;;;0.03;100.00
57114;BME280;42994;51.606;9.988;2024-01-16T12:37:25;98213.66;;;-0.14;100.00
57114;BME280;42994;51.606;9.988;2024-01-16T12:39:52;98228.47;;;-0.13;100.00
57114;BME280;42994;51.606;9.988;2024-01-16T12:42:19;98211.72;;;-0.12;100.00
57114;BME280;42994;51.606;9.988;2024-01-16T12:44:47;98212.13;;;-0.17;100.00
57114;BME280;42994;51.606;9.988;2024-01-16T12:47:15;98198.41;;;-0.11;100.00
57114;BME280;42994;51.606;9.988;2024-01-16T12:49:44;98190.84;;;0.04;100.00
57114;BME280;42994;51.606;9.988;2024-01-16T12:52:15;98190.25;;;0.10;100.00
57114;BME280;42994;51.606;9.988;2024-01-16T12:54:41;98191.13;;;0.01;100.00
57114;BME280;42994;51.606;9.988;2024-01-16T12:57:08;98189.09;;;-0.05;100.00
57114;BME280;42994;51.606;9.988;2024-01-16T12:59:39;98183.28;;;-0.09;100.00
57114;BME280;42994;51.606;9.988;2024-01-16T13:02:07;98180.50;;;-0.07;100.00
57114;BME280;42994;51.606;9.988;2024-01-16T13:04:33;98185.78;;;-0.17;100.00